createdAt,value
2023-03-23T00:01:20.931Z,0.50
2023-03-23T00:05:21.058Z,0.51
2023-03-23T00:09:21.168Z,0.52
2023-03-23T00:13:21.329Z,0.52
2023-03-23T00:17:21.446Z,0.51
2023-03-23T00:21:21.534Z,0.51
2023-03-23T00:25:21.753Z,0.52
2023-03-23T00:29:21.841Z,0.51
2023-03-23T00:33:21.997Z,0.50
2023-03-23T00:37:22.204Z,0.50
2023-03-23T00:41:22.366Z,0.51
2023-03-23T00:45:22.603Z,0.51
2023-03-23T00:49:22.553Z,0.51
2023-03-23T00:53:22.532Z,0.51
2023-03-23T00:57:22.484Z,0.51
2023-03-23T01:01:22.447Z,0.51
2023-03-23T01:05:22.396Z,0.51
2023-03-23T01:09:22.360Z,0.52
2023-03-23T01:13:22.327Z,0.52
2023-03-23T01:17:22.291Z,0.51
2023-03-23T01:21:22.247Z,0.51
2023-03-23T01:25:22.205Z,0.52
2023-03-23T01:29:22.165Z,0.52
2023-03-23T01:33:22.124Z,0.51
2023-03-23T01:37:22.072Z,0.51
2023-03-23T01:41:22.034Z,0.51
2023-03-23T01:45:22.115Z,0.50
2023-03-23T01:49:22.225Z,0.51
2023-03-23T01:53:22.371Z,0.52
2023-03-23T01:57:22.481Z,0.52
2023-03-23T02:01:22.614Z,0.52
2023-03-23T02:05:22.701Z,0.51
2023-03-23T02:09:22.684Z,0.52
2023-03-23T02:13:22.616Z,0.51
2023-03-23T02:17:22.540Z,0.51
2023-03-23T02:21:22.501Z,0.52
2023-03-23T02:25:22.429Z,0.51
2023-03-23T02:29:22.388Z,0.51
2023-03-23T02:33:22.367Z,0.52
2023-03-23T02:37:22.317Z,0.52
2023-03-23T02:41:22.262Z,0.51
2023-03-23T02:45:22.221Z,0.52
2023-03-23T02:49:22.159Z,0.51
2023-03-23T02:53:22.110Z,0.52
2023-03-23T02:57:22.052Z,0.51
2023-03-23T03:01:23.001Z,0.51
2023-03-23T03:05:21.945Z,0.51
2023-03-23T03:09:21.897Z,0.51
2023-03-23T03:13:21.901Z,0.50
2023-03-23T03:17:22.014Z,0.52
2023-03-23T03:21:22.176Z,0.52
2023-03-23T03:25:22.404Z,0.52
2023-03-23T03:29:22.571Z,0.50
2023-03-23T03:33:22.722Z,0.52
2023-03-23T03:37:22.836Z,0.51
2023-03-23T03:41:22.984Z,0.52
2023-03-23T03:45:23.135Z,0.52
2023-03-23T03:49:23.263Z,0.53
2023-03-23T03:53:23.375Z,0.51
2023-03-23T03:57:24.341Z,0.51
2023-03-23T04:01:23.303Z,0.52
2023-03-23T04:05:23.396Z,0.52
2023-03-23T04:09:23.672Z,0.51
2023-03-23T04:13:23.704Z,0.52
2023-03-23T04:17:23.906Z,0.52
2023-03-23T04:21:24.073Z,0.51
2023-03-23T04:25:24.244Z,0.51
2023-03-23T04:29:24.400Z,0.52
2023-03-23T04:33:24.596Z,0.52
2023-03-23T04:37:25.541Z,0.49
2023-03-23T04:41:24.503Z,0.52
2023-03-23T04:45:24.666Z,0.52
2023-03-23T04:49:24.899Z,0.51
2023-03-23T04:53:25.135Z,0.52
2023-03-23T04:57:25.345Z,0.52
2023-03-23T05:01:25.520Z,0.51
2023-03-23T05:05:25.733Z,0.52
2023-03-23T05:09:25.849Z,0.51
2023-03-23T05:13:26.029Z,0.52
2023-03-23T05:17:26.232Z,0.51
2023-03-23T05:21:26.389Z,0.51
2023-03-23T05:25:26.545Z,0.52
2023-03-23T05:29:26.733Z,0.50
2023-03-23T05:33:26.871Z,0.53
2023-03-23T05:37:26.918Z,0.50
2023-03-23T05:41:27.020Z,0.51
2023-03-23T05:45:27.065Z,0.51
2023-03-23T05:49:27.208Z,0.52
2023-03-23T05:53:27.352Z,0.51
2023-03-23T05:57:27.561Z,0.52
2023-03-23T06:01:27.694Z,0.51
2023-03-23T06:05:27.801Z,0.52
2023-03-23T06:09:27.914Z,0.52
2023-03-23T06:13:27.909Z,0.56
2023-03-23T06:17:27.927Z,0.55
2023-03-23T06:21:27.955Z,0.60
2023-03-23T06:25:28.064Z,0.65
2023-03-23T06:29:28.240Z,0.70
2023-03-23T06:33:28.311Z,0.62
2023-03-23T06:37:28.320Z,0.56
2023-03-23T06:41:28.364Z,0.58
2023-03-23T06:45:28.424Z,0.64
2023-03-23T06:49:28.566Z,0.64
2023-03-23T06:53:28.641Z,0.67
2023-03-23T06:57:28.651Z,0.68
2023-03-23T07:01:28.748Z,0.67
2023-03-23T07:05:28.911Z,0.67
2023-03-23T07:09:42.589Z,0.51
2023-03-23T07:13:28.880Z,0.73
2023-03-23T07:17:29.494Z,1.07
2023-03-23T07:21:28.772Z,1.08
2023-03-23T07:25:28.738Z,1.04
2023-03-23T07:29:29.486Z,1.06
2023-03-23T07:33:28.619Z,1.11
2023-03-23T07:37:28.566Z,1.19
2023-03-23T07:41:28.509Z,1.19
2023-03-23T07:45:28.461Z,1.21
2023-03-23T07:49:28.651Z,1.22
2023-03-23T07:53:29.338Z,0.94
2023-03-23T07:57:28.312Z,0.34
2023-03-23T08:01:28.286Z,0.40
2023-03-23T08:05:28.346Z,0.50
2023-03-23T08:09:28.247Z,0.55
2023-03-23T08:13:28.257Z,0.77
2023-03-23T08:17:28.244Z,3.11
2023-03-23T08:21:28.434Z,5.81
2023-03-23T08:25:28.486Z,8.92
2023-03-23T08:29:28.558Z,11.73
2023-03-23T08:33:28.558Z,13.20
2023-03-23T08:37:28.567Z,13.78
2023-03-23T08:41:28.731Z,13.68
2023-03-23T08:45:28.561Z,13.64
2023-03-23T08:49:28.578Z,14.31
2023-03-23T08:53:29.446Z,13.81
2023-03-23T08:57:28.575Z,13.77
2023-03-23T09:01:28.588Z,13.87
2023-03-23T09:05:28.590Z,13.87
2023-03-23T09:09:28.601Z,15.27
2023-03-23T09:13:28.750Z,17.15
2023-03-23T09:17:28.900Z,19.14
2023-03-23T09:21:29.022Z,19.66
2023-03-23T09:25:29.128Z,10.48
2023-03-23T09:29:29.201Z,10.24
2023-03-23T09:33:29.192Z,14.87
2023-03-23T09:37:29.192Z,12.60
2023-03-23T09:41:29.179Z,12.95
2023-03-23T09:45:29.172Z,13.86
2023-03-23T09:49:29.169Z,13.99
2023-03-23T09:53:30.084Z,12.86
2023-03-23T09:57:29.035Z,11.75
2023-03-23T10:01:28.984Z,11.11
2023-03-23T10:05:28.932Z,10.74
2023-03-23T10:09:28.881Z,10.51
2023-03-23T10:13:28.802Z,11.00
2023-03-23T10:17:28.868Z,12.51
2023-03-23T10:21:28.712Z,11.01
2023-03-23T10:25:28.643Z,10.54
2023-03-23T10:29:28.589Z,11.04
2023-03-23T10:33:28.553Z,9.02
2023-03-23T10:37:28.686Z,8.51
2023-03-23T10:41:28.500Z,8.45
2023-03-23T10:45:28.482Z,8.37
2023-03-23T10:49:28.454Z,8.54
2023-03-23T10:53:28.454Z,8.72
2023-03-23T10:57:28.436Z,8.68
2023-03-23T11:01:28.418Z,9.08
2023-03-23T11:05:28.398Z,8.51
2023-03-23T11:09:28.501Z,9.87
2023-03-23T11:13:28.580Z,12.35
2023-03-23T11:17:28.614Z,13.74
2023-03-23T11:21:28.627Z,12.55
2023-03-23T11:25:28.654Z,11.23
2023-03-23T11:29:28.626Z,11.19
2023-03-23T11:33:28.618Z,11.15
2023-03-23T11:37:28.586Z,12.77
2023-03-23T11:41:28.562Z,12.60
2023-03-23T11:45:28.554Z,12.15
2023-03-23T11:49:30.163Z,11.97
2023-03-23T11:53:28.639Z,14.31
2023-03-23T11:57:28.738Z,17.04
2023-03-23T12:01:28.793Z,19.29
2023-03-23T12:05:28.820Z,22.99
2023-03-23T12:09:28.810Z,22.31
2023-03-23T12:13:28.819Z,23.96
2023-03-23T12:17:28.797Z,21.88
2023-03-23T12:21:28.795Z,21.16
2023-03-23T12:25:28.810Z,20.50
2023-03-23T12:29:28.772Z,19.51
2023-03-23T12:33:28.748Z,18.84
2023-03-23T12:37:28.874Z,19.03
2023-03-23T12:41:28.686Z,18.62
2023-03-23T12:45:28.718Z,18.83
2023-03-23T12:49:28.638Z,19.21
2023-03-23T12:53:28.617Z,24.49
2023-03-23T12:57:28.606Z,23.82
2023-03-23T13:01:28.570Z,22.29
2023-03-23T13:05:28.583Z,25.97
2023-03-23T13:09:28.613Z,26.61
2023-03-23T13:13:28.807Z,28.83
2023-03-23T13:17:28.653Z,28.29
2023-03-23T13:21:28.608Z,25.93
2023-03-23T13:25:28.612Z,23.61
2023-03-23T13:29:28.621Z,24.68
2023-03-23T13:33:28.644Z,21.46
2023-03-23T13:37:28.652Z,20.88
2023-03-23T13:41:28.648Z,20.83
2023-03-23T13:45:28.593Z,22.08
2023-03-23T13:49:28.574Z,21.97
2023-03-23T13:53:30.607Z,23.52
2023-03-23T13:57:28.520Z,24.98
2023-03-23T14:01:28.481Z,25.10
2023-03-23T14:05:28.472Z,26.44
2023-03-23T14:09:28.484Z,27.48
2023-03-23T14:13:28.484Z,29.61
2023-03-23T14:17:28.548Z,30.66
2023-03-23T14:21:28.464Z,30.44
2023-03-23T14:25:28.440Z,29.54
2023-03-23T14:29:28.417Z,28.40
2023-03-23T14:33:28.548Z,29.62
2023-03-23T14:37:28.367Z,30.79
2023-03-23T14:41:28.313Z,31.41
2023-03-23T14:45:28.276Z,33.48
2023-03-23T14:49:28.284Z,33.61
2023-03-23T14:53:28.343Z,33.40
2023-03-23T14:57:28.302Z,33.36
2023-03-23T15:01:28.289Z,33.62
2023-03-23T15:05:28.335Z,32.86
2023-03-23T15:09:28.328Z,32.39
2023-03-23T15:13:28.334Z,29.59
2023-03-23T15:17:28.284Z,28.47
2023-03-23T15:21:28.262Z,27.06
2023-03-23T15:25:28.233Z,25.66
2023-03-23T15:29:28.249Z,26.37
2023-03-23T15:33:28.854Z,27.53
2023-03-23T15:37:28.163Z,13.92
2023-03-23T15:41:28.132Z,4.00
2023-03-23T15:45:28.084Z,3.16
2023-03-23T15:49:28.037Z,6.04
2023-03-23T15:53:28.004Z,10.59
2023-03-23T15:57:28.073Z,15.79
2023-03-23T16:01:28.121Z,16.15
2023-03-23T16:05:28.136Z,14.77
2023-03-23T16:09:28.125Z,13.86
2023-03-23T16:13:28.156Z,13.95
2023-03-23T16:17:28.248Z,13.73
2023-03-23T16:21:28.270Z,14.31
2023-03-23T16:25:28.294Z,14.20
2023-03-23T16:29:46.726Z,14.15
2023-03-23T16:33:29.409Z,14.32
2023-03-23T16:37:28.150Z,14.36
2023-03-23T16:41:28.086Z,14.63
2023-03-23T16:45:28.098Z,14.78
2023-03-23T16:49:28.114Z,14.75
2023-03-23T16:53:28.167Z,14.76
2023-03-23T16:57:28.206Z,14.67
2023-03-23T17:01:28.176Z,14.82
2023-03-23T17:05:28.135Z,14.62
2023-03-23T17:09:28.197Z,14.74
2023-03-23T17:13:28.209Z,14.92
2023-03-23T17:17:28.294Z,14.76
2023-03-23T17:21:28.207Z,14.37
2023-03-23T17:25:28.204Z,14.56
2023-03-23T17:29:28.240Z,14.43
2023-03-23T17:33:28.199Z,14.24
2023-03-23T17:37:28.170Z,14.22
2023-03-23T17:41:28.145Z,13.69
2023-03-23T17:45:28.154Z,13.70
2023-03-23T17:49:28.127Z,13.75
2023-03-23T17:53:28.136Z,13.08
2023-03-23T17:57:28.111Z,12.94
2023-03-23T18:01:28.140Z,13.04
2023-03-23T18:05:28.113Z,13.04
2023-03-23T18:09:28.129Z,12.72
2023-03-23T18:13:28.112Z,12.37
2023-03-23T18:17:28.084Z,12.23
2023-03-23T18:21:28.055Z,12.19
2023-03-23T18:25:28.007Z,11.74
2023-03-23T18:29:28.004Z,11.62
2023-03-23T18:33:28.192Z,11.58
2023-03-23T18:37:28.058Z,11.51
2023-03-23T18:41:28.078Z,11.17
2023-03-23T18:45:28.084Z,11.06
2023-03-23T18:49:28.199Z,10.93
2023-03-23T18:53:28.046Z,10.71
2023-03-23T18:57:28.076Z,10.44
2023-03-23T19:01:28.199Z,10.46
2023-03-23T19:05:28.114Z,10.37
2023-03-23T19:09:28.126Z,10.31
2023-03-23T19:13:28.117Z,9.98
2023-03-23T19:17:28.156Z,10.04
2023-03-23T19:21:29.886Z,9.99
2023-03-23T19:25:28.129Z,9.89
2023-03-23T19:29:28.076Z,9.80
2023-03-23T19:33:28.015Z,9.77
2023-03-23T19:37:28.023Z,9.43
2023-03-23T19:41:29.010Z,9.50
2023-03-23T19:45:27.855Z,9.26
2023-03-23T19:49:27.907Z,8.99
2023-03-23T19:53:27.736Z,9.10
2023-03-23T19:57:27.667Z,9.03
2023-03-23T20:01:27.613Z,8.93
2023-03-23T20:05:27.591Z,8.55
2023-03-23T20:09:27.554Z,8.45
2023-03-23T20:13:27.465Z,8.42
2023-03-23T20:17:27.399Z,8.28
2023-03-23T20:21:27.351Z,8.34
2023-03-23T20:25:27.430Z,7.96
2023-03-23T20:29:31.367Z,7.93
2023-03-23T20:33:27.253Z,8.12
2023-03-23T20:37:27.153Z,7.96
2023-03-23T20:41:27.110Z,8.04
2023-03-23T20:45:27.050Z,7.90
2023-03-23T20:49:26.998Z,7.91
2023-03-23T20:53:26.946Z,7.85
2023-03-23T20:57:26.875Z,7.73
2023-03-23T22:49:26.216Z,4.95
2023-03-23T22:53:26.198Z,4.97
2023-03-23T22:57:26.218Z,4.79
2023-03-23T23:01:26.247Z,4.71
2023-03-23T23:05:26.246Z,4.69
2023-03-23T23:09:26.309Z,4.62
2023-03-23T23:13:26.370Z,4.41
2023-03-23T23:17:26.515Z,4.52
2023-03-23T23:21:26.669Z,4.26
2023-03-23T23:25:26.689Z,4.34
2023-03-23T23:29:26.748Z,4.27
2023-03-23T23:33:26.849Z,4.26
2023-03-23T23:37:26.896Z,4.02
2023-03-23T23:41:26.904Z,3.95
2023-03-23T23:45:26.980Z,4.01
2023-03-23T23:49:27.093Z,3.94
2023-03-23T23:53:27.132Z,3.81
2023-03-23T23:57:27.180Z,3.84
